createdAt,value
2023-06-09T00:01:23.991Z,2.50
2023-06-09T00:03:52.361Z,2.20
2023-06-09T00:06:24.032Z,1.95
2023-06-09T00:08:51.894Z,2.40
2023-06-09T00:11:19.524Z,2.20
2023-06-09T00:13:46.906Z,2.20
2023-06-09T00:16:14.071Z,2.42
2023-06-09T00:18:41.441Z,2.40
2023-06-09T00:21:09.801Z,2.63
2023-06-09T00:23:36.965Z,2.33
2023-06-09T00:26:04.136Z,2.33
2023-06-09T00:28:31.290Z,2.20
2023-06-09T00:30:58.510Z,2.40
2023-06-09T00:33:25.643Z,2.90
2023-06-09T00:35:52.948Z,2.35
2023-06-09T00:38:21.200Z,2.55
2023-06-09T00:40:49.039Z,2.38
2023-06-09T00:43:17.232Z,2.47
2023-06-09T00:45:44.368Z,1.88
2023-06-09T00:48:11.615Z,2.30
2023-06-09T00:50:39.940Z,2.30
2023-06-09T00:53:07.303Z,2.45
2023-06-09T00:55:35.487Z,2.08
2023-06-09T00:58:02.837Z,2.25
2023-06-09T01:00:30.296Z,2.35
2023-06-09T01:03:04.036Z,2.40
2023-06-09T01:05:33.977Z,2.40
2023-06-09T01:08:11.096Z,2.67
2023-06-09T01:10:54.632Z,2.08
2023-06-09T01:13:44.080Z,2.20
2023-06-09T01:16:14.967Z,2.33
2023-06-09T01:18:43.492Z,2.15
2023-06-09T01:21:36.554Z,2.10
2023-06-09T01:24:22.274Z,2.30
2023-06-09T01:26:51.868Z,2.60
2023-06-09T01:29:20.434Z,2.42
2023-06-09T01:31:48.094Z,2.50
2023-06-09T01:34:15.784Z,1.92
2023-06-09T01:36:45.119Z,2.50
2023-06-09T01:39:12.892Z,3.05
2023-06-09T01:41:40.040Z,2.72
2023-06-09T01:44:08.396Z,2.10
2023-06-09T01:46:35.781Z,2.33
2023-06-09T01:49:23.123Z,2.38
2023-06-09T01:51:54.387Z,2.33
2023-06-09T01:54:24.405Z,3.00
2023-06-09T01:56:55.318Z,2.40
2023-06-09T01:59:26.682Z,2.47
2023-06-09T02:01:54.537Z,2.40
2023-06-09T02:04:25.015Z,2.88
2023-06-09T02:06:52.757Z,2.60
2023-06-09T02:09:20.510Z,2.20
2023-06-09T02:11:53.987Z,2.65
2023-06-09T02:14:21.660Z,3.10
2023-06-09T02:16:48.905Z,2.50
2023-06-09T02:19:18.027Z,2.22
2023-06-09T02:21:45.328Z,2.38
2023-06-09T02:24:12.587Z,2.40
2023-06-09T02:26:39.839Z,2.35
2023-06-09T02:29:06.999Z,2.03
2023-06-09T02:31:34.221Z,2.45
2023-06-09T02:34:01.441Z,2.78
2023-06-09T02:36:28.967Z,2.22
2023-06-09T02:38:56.188Z,2.28
2023-06-09T02:41:23.419Z,2.50
2023-06-09T02:43:50.628Z,2.10
2023-06-09T02:46:18.599Z,2.22
2023-06-09T02:48:46.201Z,2.20
2023-06-09T02:51:14.482Z,2.45
2023-06-09T02:53:41.779Z,1.95
2023-06-09T02:56:09.025Z,2.30
2023-06-09T02:58:36.176Z,2.25
2023-06-09T03:01:03.400Z,2.53
2023-06-09T03:03:30.695Z,2.55
2023-06-09T03:05:59.664Z,2.47
2023-06-09T03:08:26.977Z,2.72
2023-06-09T03:10:54.668Z,2.33
2023-06-09T03:13:23.009Z,2.50
2023-06-09T03:15:51.265Z,2.38
2023-06-09T03:18:18.665Z,2.38
2023-06-09T03:20:46.518Z,2.50
2023-06-09T03:23:14.972Z,1.80
2023-06-09T03:25:42.177Z,2.50
2023-06-09T03:28:09.302Z,2.20
2023-06-09T03:30:36.519Z,2.22
2023-06-09T03:33:03.794Z,2.70
2023-06-09T03:35:31.056Z,2.35
2023-06-09T03:37:58.184Z,2.30
2023-06-09T03:40:25.431Z,2.30
2023-06-09T03:42:52.625Z,3.60
2023-06-09T03:45:19.887Z,2.17
2023-06-09T03:47:47.543Z,2.63
2023-06-09T03:50:14.843Z,2.15
2023-06-09T03:52:42.065Z,2.20
2023-06-09T03:55:09.306Z,2.20
2023-06-09T03:57:36.634Z,2.53
2023-06-09T04:00:04.772Z,2.30
2023-06-09T04:02:32.308Z,2.17
2023-06-09T04:04:59.984Z,1.83
2023-06-09T04:07:31.153Z,2.03
2023-06-09T04:09:58.355Z,2.42
2023-06-09T04:12:25.481Z,2.15
2023-06-09T04:14:52.706Z,2.10
2023-06-09T04:17:19.849Z,2.20
2023-06-09T04:19:47.071Z,2.53
2023-06-09T04:22:14.252Z,2.22
2023-06-09T04:24:41.433Z,2.65
2023-06-09T04:27:09.006Z,2.50
2023-06-09T04:29:36.145Z,3.30
2023-06-09T04:32:03.517Z,2.50
2023-06-09T04:34:39.172Z,2.45
2023-06-09T04:37:10.298Z,2.33
2023-06-09T04:39:37.674Z,2.20
2023-06-09T04:42:05.302Z,2.42
2023-06-09T04:44:33.972Z,2.42
2023-06-09T04:47:04.272Z,2.25
2023-06-09T04:49:32.404Z,2.15
2023-06-09T04:52:00.417Z,2.38
2023-06-09T04:54:30.150Z,2.38
2023-06-09T04:57:02.890Z,2.05
2023-06-09T04:59:30.233Z,2.47
2023-06-09T05:01:57.466Z,2.45
2023-06-09T05:04:24.647Z,2.50
2023-06-09T05:06:52.512Z,2.40
2023-06-09T05:09:19.671Z,2.80
2023-06-09T05:11:46.796Z,2.08
2023-06-09T05:14:14.106Z,1.75
2023-06-09T05:16:43.992Z,2.08
2023-06-09T05:19:11.841Z,2.50
2023-06-09T05:21:40.028Z,2.30
2023-06-09T05:24:07.263Z,2.47
2023-06-09T05:26:34.463Z,2.10
2023-06-09T05:29:01.622Z,2.25
2023-06-09T05:31:28.957Z,2.38
2023-06-09T05:33:56.142Z,2.35
2023-06-09T05:36:23.346Z,2.13
2023-06-09T05:38:50.532Z,2.88
2023-06-09T05:41:17.733Z,2.08
2023-06-09T05:43:45.208Z,2.42
2023-06-09T05:46:12.403Z,2.20
2023-06-09T05:48:39.596Z,2.63
2023-06-09T05:51:07.513Z,2.30
2023-06-09T05:53:35.233Z,2.92
2023-06-09T05:56:03.528Z,2.58
2023-06-09T05:58:34.577Z,2.60
2023-06-09T06:01:04.651Z,2.33
2023-06-09T06:03:34.517Z,2.70
2023-06-09T06:06:02.108Z,2.92
2023-06-09T06:08:29.246Z,2.42
2023-06-09T06:10:56.376Z,3.15
2023-06-09T06:13:23.546Z,2.67
2023-06-09T06:15:50.761Z,2.00
2023-06-09T06:18:18.081Z,2.30
2023-06-09T06:20:45.252Z,3.80
2023-06-09T06:23:12.428Z,2.30
2023-06-09T06:25:42.559Z,3.05
2023-06-09T06:28:12.081Z,2.50
2023-06-09T06:30:39.283Z,2.30
2023-06-09T06:33:07.561Z,2.63
2023-06-09T06:35:35.016Z,2.45
2023-06-09T06:38:02.408Z,2.25
2023-06-09T06:40:29.754Z,2.67
2023-06-09T06:42:56.891Z,2.47
2023-06-09T06:45:24.199Z,2.75
2023-06-09T06:47:51.448Z,3.03
2023-06-09T06:50:18.754Z,2.80
2023-06-09T06:52:46.154Z,2.63
2023-06-09T06:55:13.331Z,2.92
2023-06-09T06:57:40.538Z,2.58
2023-06-09T07:00:15.093Z,2.75
2023-06-09T07:02:48.001Z,2.58
2023-06-09T07:05:16.104Z,3.55
2023-06-09T07:07:44.916Z,2.65
2023-06-09T07:10:12.718Z,2.42
2023-06-09T07:12:39.938Z,2.92
2023-06-09T07:15:07.398Z,3.35
2023-06-09T07:17:34.754Z,2.97
2023-06-09T07:20:02.090Z,3.45
2023-06-09T07:22:29.449Z,2.60
2023-06-09T07:24:57.257Z,2.55
2023-06-09T07:27:24.912Z,3.10
2023-06-09T07:29:52.096Z,2.63
2023-06-09T07:32:19.443Z,2.60
2023-06-09T07:34:46.778Z,2.78
2023-06-09T07:37:14.649Z,2.72
2023-06-09T07:39:42.195Z,3.33
2023-06-09T07:42:09.446Z,3.08
2023-06-09T07:44:36.707Z,3.10
2023-06-09T07:47:04.203Z,2.70
2023-06-09T07:49:31.388Z,2.63
2023-06-09T07:52:02.205Z,2.70
2023-06-09T07:54:31.354Z,2.50
2023-06-09T07:56:58.668Z,2.28
2023-06-09T07:59:26.119Z,2.85
2023-06-09T08:01:53.298Z,2.75
2023-06-09T08:04:20.531Z,2.70
2023-06-09T08:06:48.618Z,2.75
2023-06-09T08:09:15.794Z,2.60
2023-06-09T08:11:42.913Z,3.25
2023-06-09T08:14:10.147Z,2.92
2023-06-09T08:16:37.409Z,3.38
2023-06-09T08:19:04.709Z,2.78
2023-06-09T08:21:31.911Z,3.25
2023-06-09T08:23:59.267Z,2.92
2023-06-09T08:26:26.550Z,2.92
2023-06-09T08:28:53.737Z,3.17
2023-06-09T08:31:21.555Z,3.10
2023-06-09T08:33:49.077Z,3.13
2023-06-09T08:36:16.363Z,3.33
2023-06-09T08:38:43.564Z,3.53
2023-06-09T08:41:11.637Z,3.17
2023-06-09T08:43:38.881Z,3.08
2023-06-09T08:46:07.583Z,2.92
2023-06-09T08:48:36.213Z,3.03
2023-06-09T08:51:03.686Z,2.75
2023-06-09T08:53:32.291Z,2.80
2023-06-09T08:56:02.703Z,3.35
2023-06-09T08:58:29.930Z,3.33
2023-06-09T09:00:57.158Z,3.25
2023-06-09T09:03:24.410Z,3.15
2023-06-09T09:05:51.678Z,3.50
2023-06-09T09:08:21.581Z,3.47
2023-06-09T09:10:48.860Z,3.05
2023-06-09T09:13:16.375Z,3.17
2023-06-09T09:15:53.068Z,3.33
2023-06-09T09:18:23.139Z,3.55
2023-06-09T09:20:50.392Z,3.50
2023-06-09T09:23:18.368Z,3.63
2023-06-09T09:25:45.582Z,3.38
2023-06-09T09:28:16.912Z,3.83
2023-06-09T09:30:45.437Z,3.60
2023-06-09T09:33:32.858Z,3.53
2023-06-09T09:36:00.771Z,4.15
2023-06-09T09:38:29.028Z,3.63
2023-06-09T09:40:57.360Z,3.45
2023-06-09T09:43:28.210Z,3.83
2023-06-09T09:45:56.542Z,3.53
2023-06-09T09:48:26.014Z,3.58
2023-06-09T09:50:54.052Z,3.22
2023-06-09T09:53:25.031Z,3.75
2023-06-09T09:55:53.939Z,3.65
2023-06-09T09:58:22.178Z,3.33
2023-06-09T10:00:50.671Z,4.10
2023-06-09T10:03:19.360Z,3.70
2023-06-09T10:05:48.116Z,3.85
2023-06-09T10:10:43.861Z,3.15
2023-06-09T10:13:11.129Z,4.00
2023-06-09T10:15:38.523Z,3.53
2023-06-09T10:18:06.648Z,3.65
2023-06-09T10:20:33.848Z,3.95
2023-06-09T10:23:01.439Z,3.67
2023-06-09T10:25:29.048Z,3.80
2023-06-09T10:27:56.264Z,3.83
2023-06-09T10:30:23.581Z,3.58
2023-06-09T10:33:06.188Z,3.50
2023-06-09T10:35:34.462Z,3.35
2023-06-09T10:38:21.692Z,3.60
2023-06-09T10:40:51.287Z,3.83
2023-06-09T10:43:25.312Z,3.17
2023-06-09T10:45:56.561Z,3.85
2023-06-09T10:48:45.399Z,3.95
2023-06-09T10:51:27.786Z,4.13
2023-06-09T10:54:16.448Z,3.58
2023-06-09T10:56:46.856Z,4.03
2023-06-09T10:59:26.401Z,4.00
2023-06-09T11:02:02.986Z,3.92
2023-06-09T11:04:45.720Z,4.10
2023-06-09T11:07:14.353Z,3.70
2023-06-09T11:09:42.094Z,4.50
2023-06-09T11:12:22.431Z,5.32
2023-06-09T11:14:49.574Z,4.50
2023-06-09T11:17:27.247Z,5.28
2023-06-09T11:20:12.841Z,5.38
2023-06-09T11:22:43.776Z,4.47
2023-06-09T11:25:17.314Z,4.65
2023-06-09T11:27:45.191Z,4.55
2023-06-09T11:30:13.084Z,4.25
2023-06-09T11:32:50.534Z,4.95
2023-06-09T11:35:46.043Z,4.25
2023-06-09T11:38:14.190Z,4.53
2023-06-09T11:40:50.078Z,4.40
2023-06-09T11:43:17.636Z,4.60
2023-06-09T11:45:46.097Z,4.10
2023-06-09T11:48:13.561Z,4.40
2023-06-09T11:50:46.892Z,4.60
2023-06-09T11:53:15.673Z,4.63
2023-06-09T11:55:43.420Z,4.60
2023-06-09T11:58:11.532Z,4.55
2023-06-09T12:00:42.586Z,4.32
2023-06-09T12:03:10.938Z,3.95
2023-06-09T12:10:32.782Z,4.35
2023-06-09T12:13:00.420Z,4.53
2023-06-09T12:15:28.619Z,4.22
2023-06-09T12:17:58.323Z,3.70
2023-06-09T12:20:35.108Z,3.90
2023-06-09T12:23:15.954Z,4.35
2023-06-09T12:25:43.884Z,4.53
2023-06-09T12:28:13.967Z,3.95
2023-06-09T12:30:51.323Z,3.92
2023-06-09T12:33:19.835Z,4.05
2023-06-09T12:35:48.488Z,3.88
2023-06-09T12:38:15.619Z,4.00
2023-06-09T12:40:46.419Z,4.47
2023-06-09T12:43:13.967Z,4.03
2023-06-09T12:45:44.339Z,3.75
2023-06-09T12:48:11.778Z,3.90
2023-06-09T12:50:39.134Z,4.03
2023-06-09T12:53:08.838Z,3.90
2023-06-09T12:55:36.305Z,4.18
2023-06-09T12:58:03.755Z,3.63
2023-06-09T13:00:31.120Z,4.00
2023-06-09T13:03:01.516Z,3.90
2023-06-09T13:05:35.215Z,4.00
2023-06-09T13:08:02.879Z,4.10
2023-06-09T13:10:30.364Z,4.43
2023-06-09T13:12:57.890Z,3.78
2023-06-09T13:15:26.276Z,4.00
2023-06-09T13:17:54.099Z,4.13
2023-06-09T13:20:21.776Z,3.90
2023-06-09T13:22:49.412Z,3.72
2023-06-09T13:25:17.932Z,4.03
2023-06-09T13:27:46.039Z,4.53
2023-06-09T13:30:13.701Z,3.95
2023-06-09T13:32:41.202Z,4.10
2023-06-09T13:35:09.211Z,4.18
2023-06-09T13:37:36.974Z,4.25
2023-06-09T13:40:04.518Z,3.90
2023-06-09T13:42:31.730Z,3.92
2023-06-09T13:44:58.913Z,4.53
2023-06-09T13:47:26.072Z,4.60
2023-06-09T13:49:55.159Z,4.32
2023-06-09T13:52:22.740Z,4.30
2023-06-09T13:54:49.975Z,3.97
2023-06-09T13:57:17.680Z,4.28
2023-06-09T13:59:44.861Z,4.80
2023-06-09T14:02:12.276Z,4.85
2023-06-09T14:04:39.721Z,4.57
2023-06-09T14:07:07.705Z,4.78
2023-06-09T14:09:34.953Z,4.00
2023-06-09T14:12:02.149Z,4.55
2023-06-09T14:14:29.318Z,4.20
2023-06-09T14:16:58.555Z,4.50
2023-06-09T14:19:25.897Z,4.32
2023-06-09T14:21:53.052Z,4.22
2023-06-09T14:24:20.397Z,4.32
2023-06-09T14:26:49.311Z,4.55
2023-06-09T14:29:16.547Z,4.45
2023-06-09T14:31:43.770Z,5.13
2023-06-09T14:34:10.938Z,4.82
2023-06-09T14:36:38.312Z,4.40
2023-06-09T14:39:05.452Z,4.18
2023-06-09T14:41:32.592Z,5.13
2023-06-09T14:43:59.811Z,4.28
2023-06-09T14:46:27.027Z,4.00
2023-06-09T14:48:54.325Z,4.63
2023-06-09T14:51:21.519Z,4.00
2023-06-09T14:53:48.784Z,4.32
2023-06-09T14:56:16.209Z,4.22
2023-06-09T14:58:43.433Z,4.32
2023-06-09T15:01:11.045Z,4.20
2023-06-09T15:03:38.435Z,3.60
2023-06-09T15:06:08.906Z,3.55
2023-06-09T15:08:36.406Z,3.80
2023-06-09T15:11:03.998Z,3.60
2023-06-09T15:13:31.206Z,3.90
2023-06-09T15:15:58.403Z,3.85
2023-06-09T15:18:25.571Z,4.07
2023-06-09T15:20:52.729Z,3.75
2023-06-09T15:23:19.874Z,4.00
2023-06-09T15:25:47.003Z,3.92
2023-06-09T15:28:15.537Z,4.00
2023-06-09T15:30:47.046Z,3.63
2023-06-09T15:33:15.140Z,4.55
2023-06-09T15:35:43.613Z,4.20
2023-06-09T15:38:11.707Z,4.03
2023-06-09T15:40:40.425Z,4.43
2023-06-09T15:45:38.816Z,3.75
2023-06-09T15:48:06.475Z,3.83
2023-06-09T15:50:33.729Z,4.57
2023-06-09T15:53:00.913Z,3.75
2023-06-09T15:55:28.407Z,4.10
2023-06-09T15:57:55.624Z,3.20
2023-06-09T16:00:22.776Z,3.70
2023-06-09T16:02:50.043Z,3.78
2023-06-09T16:05:17.280Z,4.10
2023-06-09T16:07:44.429Z,3.95
2023-06-09T16:10:11.935Z,3.85
2023-06-09T16:12:39.102Z,3.78
2023-06-09T16:15:07.068Z,3.88
2023-06-09T16:17:34.474Z,3.75
2023-06-09T16:20:02.460Z,4.22
2023-06-09T16:22:29.663Z,3.83
2023-06-09T16:25:00.050Z,3.83
2023-06-09T16:27:27.432Z,4.13
2023-06-09T16:29:54.967Z,4.38
2023-06-09T16:32:22.119Z,3.83
2023-06-09T16:34:49.385Z,3.85
2023-06-09T16:37:16.563Z,3.90
2023-06-09T16:39:45.092Z,3.92
2023-06-09T16:42:12.525Z,4.03
2023-06-09T16:44:39.682Z,4.05
2023-06-09T16:47:07.081Z,4.25
2023-06-09T16:49:34.350Z,4.20
2023-06-09T16:52:01.548Z,4.40
2023-06-09T16:54:28.686Z,4.40
2023-06-09T16:56:55.865Z,4.45
2023-06-09T16:59:23.019Z,5.00
2023-06-09T17:01:50.413Z,5.05
2023-06-09T17:04:17.674Z,4.55
2023-06-09T17:06:44.851Z,4.53
2023-06-09T17:09:12.001Z,4.85
2023-06-09T17:11:39.135Z,4.80
2023-06-09T17:14:06.392Z,4.35
2023-06-09T17:16:33.640Z,5.82
2023-06-09T17:19:02.047Z,4.85
2023-06-09T17:21:34.319Z,5.13
2023-06-09T17:24:04.609Z,5.75
2023-06-09T17:26:33.334Z,4.63
2023-06-09T17:31:28.131Z,4.60
2023-06-09T17:33:55.397Z,4.57
2023-06-09T17:36:22.785Z,4.68
2023-06-09T17:38:54.172Z,4.43
2023-06-09T17:41:21.750Z,4.38
2023-06-09T17:43:49.271Z,4.97
2023-06-09T17:46:16.640Z,4.72
2023-06-09T17:48:47.067Z,4.88
2023-06-09T17:51:17.283Z,4.75
2023-06-09T17:53:44.930Z,4.70
2023-06-09T17:56:12.084Z,4.88
2023-06-09T17:58:39.728Z,4.68
2023-06-09T18:01:06.939Z,4.30
2023-06-09T18:03:37.438Z,4.63
2023-06-09T18:06:04.908Z,4.57
2023-06-09T18:08:32.073Z,4.38
2023-06-09T18:10:59.369Z,3.95
2023-06-09T18:13:26.868Z,4.85
2023-06-09T18:15:54.056Z,5.03
2023-06-09T18:18:21.695Z,4.75
2023-06-09T18:20:48.880Z,4.50
2023-06-09T18:23:16.033Z,4.53
2023-06-09T18:25:43.298Z,4.40
2023-06-09T18:28:10.416Z,4.35
2023-06-09T18:30:37.562Z,4.38
2023-06-09T18:33:04.759Z,4.95
2023-06-09T18:35:31.992Z,4.72
2023-06-09T18:37:59.118Z,4.38
2023-06-09T18:40:26.295Z,4.65
2023-06-09T18:42:53.497Z,5.03
2023-06-09T18:45:20.692Z,6.18
2023-06-09T18:47:47.902Z,4.70
2023-06-09T18:50:15.104Z,5.07
2023-06-09T18:52:42.311Z,5.00
2023-06-09T18:55:09.936Z,5.30
2023-06-09T18:57:40.433Z,4.85
2023-06-09T19:00:10.084Z,4.90
2023-06-09T19:02:37.496Z,4.50
2023-06-09T19:05:05.434Z,4.53
2023-06-09T19:07:32.609Z,4.80
2023-06-09T19:10:01.461Z,4.95
2023-06-09T19:12:28.924Z,4.95
2023-06-09T19:14:56.545Z,5.47
2023-06-09T19:17:23.742Z,5.30
2023-06-09T19:19:50.950Z,5.07
2023-06-09T19:22:20.492Z,5.28
2023-06-09T19:24:49.198Z,4.68
2023-06-09T19:27:16.422Z,4.75
2023-06-09T19:29:43.576Z,5.00
2023-06-09T19:32:10.719Z,6.13
2023-06-09T19:34:39.409Z,6.03
2023-06-09T19:39:33.955Z,7.95
2023-06-09T19:42:01.168Z,5.88
2023-06-09T19:44:28.423Z,5.95
2023-06-09T19:46:55.641Z,5.65
2023-06-09T19:49:24.510Z,7.22
2023-06-09T19:51:51.847Z,6.05
2023-06-09T19:54:19.024Z,6.53
2023-06-09T19:56:50.649Z,6.15
2023-06-09T19:59:17.932Z,5.78
2023-06-09T20:01:45.518Z,5.65
2023-06-09T20:04:12.859Z,6.00
2023-06-09T20:06:40.857Z,5.93
2023-06-09T20:09:08.708Z,5.80
2023-06-09T20:11:35.959Z,5.70
2023-06-09T20:14:03.433Z,6.90
2023-06-09T20:16:32.801Z,5.90
2023-06-09T20:19:01.092Z,6.20
2023-06-09T20:21:28.193Z,6.13
2023-06-09T20:23:55.482Z,5.63
2023-06-09T20:26:22.676Z,6.22
2023-06-09T20:28:49.840Z,6.75
2023-06-09T20:31:16.974Z,5.72
2023-06-09T20:33:49.375Z,5.20
2023-06-09T20:36:16.512Z,5.72
2023-06-09T20:38:43.859Z,5.30
2023-06-09T20:41:11.570Z,5.55
2023-06-09T20:43:38.760Z,5.85
2023-06-09T20:46:08.312Z,5.05
2023-06-09T20:48:37.480Z,5.32
2023-06-09T20:51:05.205Z,5.30
2023-06-09T20:53:32.624Z,5.45
2023-06-09T20:55:59.780Z,4.88
2023-06-09T20:58:26.953Z,5.72
2023-06-09T21:00:54.341Z,5.40
2023-06-09T21:03:23.154Z,5.25
2023-06-09T21:05:51.058Z,5.25
2023-06-09T21:08:18.485Z,5.38
2023-06-09T21:10:45.690Z,4.78
2023-06-09T21:13:12.852Z,5.00
2023-06-09T21:15:40.039Z,4.80
2023-06-09T21:18:07.357Z,4.88
2023-06-09T21:20:34.741Z,4.90
2023-06-09T21:23:02.314Z,5.00
2023-06-09T21:25:33.222Z,4.80
2023-06-09T21:28:04.162Z,5.10
2023-06-09T21:30:32.804Z,5.03
2023-06-09T21:33:00.609Z,4.72
2023-06-09T21:35:27.908Z,5.63
2023-06-09T21:37:55.201Z,4.95
2023-06-09T21:40:22.529Z,4.55
2023-06-09T21:42:49.711Z,5.03
2023-06-09T21:45:17.000Z,5.28
2023-06-09T21:47:44.199Z,4.53
2023-06-09T21:50:11.626Z,4.60
2023-06-09T21:52:38.812Z,4.82
2023-06-09T21:55:06.906Z,4.38
2023-06-09T21:57:36.590Z,5.68
2023-06-09T22:00:04.805Z,4.82
2023-06-09T22:02:33.391Z,4.80
2023-06-09T22:05:00.726Z,4.55
2023-06-09T22:07:27.878Z,5.53
2023-06-09T22:09:55.064Z,5.38
2023-06-09T22:12:22.240Z,4.80
2023-06-09T22:14:49.498Z,5.22
2023-06-09T22:17:17.329Z,4.95
2023-06-09T22:19:44.547Z,4.68
2023-06-09T22:22:13.898Z,4.93
2023-06-09T22:24:41.095Z,5.00
2023-06-09T22:27:08.334Z,4.28
2023-06-09T22:29:35.560Z,4.60
2023-06-09T22:32:03.284Z,4.80
2023-06-09T22:34:30.517Z,5.03
2023-06-09T22:36:57.653Z,4.85
2023-06-09T22:39:25.544Z,5.15
2023-06-09T22:41:52.729Z,5.03
2023-06-09T22:44:19.960Z,4.78
2023-06-09T22:46:47.268Z,4.03
2023-06-09T22:49:14.581Z,4.82
2023-06-09T22:51:41.984Z,4.75
2023-06-09T22:54:10.624Z,4.97
2023-06-09T22:56:39.020Z,4.80
2023-06-09T22:59:06.153Z,4.60
2023-06-09T23:01:33.405Z,5.28
2023-06-09T23:04:01.611Z,4.95
2023-06-09T23:06:30.061Z,5.03
2023-06-09T23:08:58.053Z,4.70
2023-06-09T23:11:25.323Z,5.13
2023-06-09T23:13:52.910Z,4.80
2023-06-09T23:16:21.400Z,4.85
2023-06-09T23:18:48.755Z,4.50
2023-06-09T23:21:15.947Z,4.57
2023-06-09T23:23:43.413Z,4.97
2023-06-09T23:26:10.740Z,5.40
2023-06-09T23:28:37.889Z,4.47
2023-06-09T23:31:05.087Z,4.57
2023-06-09T23:33:32.788Z,4.57
2023-06-09T23:36:00.016Z,4.82
2023-06-09T23:38:27.261Z,4.70
2023-06-09T23:40:54.468Z,4.63
2023-06-09T23:43:23.264Z,4.82
2023-06-09T23:45:50.607Z,5.20
2023-06-09T23:48:17.851Z,4.30
2023-06-09T23:50:44.991Z,4.40
2023-06-09T23:53:22.088Z,4.63
2023-06-09T23:55:50.067Z,4.20
2023-06-09T23:58:18.615Z,5.05
